Hauptseite
METAR-TAF:

METAR-TAF

Flughäfen :

Nörvenich, Deutschland

Fliegerhorst Nörvenich

Breite: 50-50N, Länge: 006-40E, Höhe: 118 m

Beobachtung

Neuester Wetterbericht von vor 17 Minuten, um 15:20 UTC
Wind 6 kt aus Nord
Temperatur 24°C
Luftfeuchtigkeit 38%
Luftdruck 1019 hPa
Sichtweite: 7000 m

METAR: ETNN 211520Z AUTO 01006KT 7000 // ////// 24/09 Q1019 ///

Zeit: 17:37 (15:37 UTC)

Prognose

Neuester Wetterbericht von vor 25 Stunden und 57 Minuten, um 13:40 UTC
Gültige Prognose vom 20 um 11 UTC bis 20 um 20 UTC
Wind 3 kt aus unterschiedlichen Richtungen
Sichtweite 10 km oder mehr
Aufgelockert bewölkt in der Höhe von 35000 ft

TAF: ETNN 201340Z 2011/2020 VRB03KT 9999 NSW SCT350 CANCEL BY ETGL

Wetterbeobachtungen und Prognosen von mehr als 4000 Flughäfen (METAR und TAF Bericht).

Die verfügbaren Stationen werden durch gelbe und rote Markierungen auf der Karte dargestellt.

Führen Sie die Maus auf sie, um den Namen der Station zu sehen.

Darauf klicken, um die Beobachtung von Wetterbeobachtungen und Prognosen zu sehen.

Um die Karte zu ändern : klicken Sie auf den grünen Tasten mit einem schwarzen Kreuz Zum Vergrößern, auf den grünen Button mit einem Gedankenstrich zu verkleinern, oder auf die grünen Pfeile für benachbarte Karten.


METAR-TAF: